Pickle Lake, Ontario

Past 24 Hour Conditions

Date / Time
(EST)
Conditions Temp
(°F)
Humidity
(%)
Dew Point
(°F)
Wind
(mph)
Pressure
(inches)
Visibility
(miles)
25 October 2014
21:00 N/A 39   71 30 WNW 12 29.8 N/A
20:00 N/A 39   68 30 WNW 14 gust 23 29.8 N/A
19:00 N/A 39   76 32 WNW 18 gust 29 29.8 N/A
18:00 N/A 40 70 31 WNW 12 gust 23 29.8 N/A
17:00 N/A 40 68 30 NW 15 gust 30 29.8 N/A
16:00 N/A 40 70 31 WNW 18 gust 35 29.7 N/A
15:00 N/A 41 70 32 NW 19 gust 30 29.7 N/A
14:00 N/A 40 78 34 WNW 21 gust 31 29.6 N/A
13:00 N/A 41 70 32 WNW 20 gust 30 29.6 N/A
12:00 N/A 40 76 33 WNW 20 gust 30 29.6 N/A
11:00 N/A 40 76 33 WNW 19 gust 36 29.6 N/A
10:00 N/A 41 70 32 WNW 19 gust 36 29.6 N/A
9:00 N/A 41 69 32 WNW 25 gust 44 29.6 N/A
8:00 N/A 41 73 33 WNW 24 gust 38 29.5 N/A
7:00 N/A 41 74 34 WNW 22 gust 33 29.5 N/A
6:00 N/A 41 76 34 WNW 19 gust 31 29.5 N/A
5:00 N/A 42 81 36 WNW 25 gust 36 29.5 N/A
4:00 N/A 42 88 39 WNW 19 gust 32 29.5 N/A
3:00 N/A 44 87 40 WNW 23 gust 34 29.5 N/A
2:00 N/A 44 90 41 W 17 gust 31 29.5 N/A
1:00 N/A 45 91 42 WNW 20 gust 32 29.4 N/A
00:00 N/A 46 96 45 W 19 29.4 N/A
24 October 2014
23:00 N/A 49 81 43 WNW 20 gust 28 29.4 N/A
22:00 N/A 53 68 43 WSW 16 gust 21 29.4 N/A
21:00 N/A 54   67 44 WSW 15 gust 20 29.4 N/A
N/A Not available
↑ Highest temperature
↓ Lowest temperature

If you require additional historical weather information, please visit Climate Data Online.

Date modified: